sensor_id;sensor_type;location;lat;lon;timestamp;pressure;altitude;pressure_sealevel;temperature;humidity
7918;BME280;4004;42.624;23.386;2024-03-02T00:01:26;93652.16;;;7.06;100.00
7918;BME280;4004;42.624;23.386;2024-03-02T00:03:53;93665.59;;;7.10;100.00
7918;BME280;4004;42.624;23.386;2024-03-02T00:06:20;93663.16;;;7.04;100.00
7918;BME280;4004;42.624;23.386;2024-03-02T00:08:48;93650.06;;;6.99;100.00
7918;BME280;4004;42.624;23.386;2024-03-02T00:11:15;93649.63;;;6.97;100.00
7918;BME280;4004;42.624;23.386;2024-03-02T00:13:45;93660.25;;;6.94;100.00
7918;BME280;4004;42.624;23.386;2024-03-02T00:16:12;93656.78;;;6.93;100.00
7918;BME280;4004;42.624;23.386;2024-03-02T00:18:40;93656.34;;;6.91;100.00
7918;BME280;4004;42.624;23.386;2024-03-02T00:21:08;93649.19;;;6.95;100.00
7918;BME280;4004;42.624;23.386;2024-03-02T00:23:37;93645.75;;;6.95;100.00
7918;BME280;4004;42.624;23.386;2024-03-02T00:26:04;93638.00;;;6.90;100.00
7918;BME280;4004;42.624;23.386;2024-03-02T00:28:35;93646.47;;;6.92;100.00
7918;BME280;4004;42.624;23.386;2024-03-02T00:31:04;93636.00;;;6.87;100.00
7918;BME280;4004;42.624;23.386;2024-03-02T00:33:32;93651.25;;;6.86;100.00
7918;BME280;4004;42.624;23.386;2024-03-02T00:36:02;93639.38;;;6.83;100.00
7918;BME280;4004;42.624;23.386;2024-03-02T00:38:30;93630.91;;;6.81;100.00
7918;BME280;4004;42.624;23.386;2024-03-02T00:40:58;93635.06;;;6.79;100.00
7918;BME280;4004;42.624;23.386;2024-03-02T00:43:47;93636.53;;;6.76;100.00
7918;BME280;4004;42.624;23.386;2024-03-02T00:46:18;93624.69;;;6.77;100.00
7918;BME280;4004;42.624;23.386;2024-03-02T00:48:53;93619.69;;;6.76;100.00
7918;BME280;4004;42.624;23.386;2024-03-02T00:51:23;93617.72;;;6.73;100.00
7918;BME280;4004;42.624;23.386;2024-03-02T00:53:50;93623.78;;;6.85;100.00
7918;BME280;4004;42.624;23.386;2024-03-02T00:56:18;93623.78;;;6.85;100.00
7918;BME280;4004;42.624;23.386;2024-03-02T00:58:44;93612.75;;;6.87;100.00
7918;BME280;4004;42.624;23.386;2024-03-02T01:01:11;93618.94;;;6.91;100.00
7918;BME280;4004;42.624;23.386;2024-03-02T01:03:38;93617.13;;;6.95;100.00
7918;BME280;4004;42.624;23.386;2024-03-02T01:06:07;93614.72;;;6.90;100.00
7918;BME280;4004;42.624;23.386;2024-03-02T01:08:35;93617.13;;;6.95;100.00
7918;BME280;4004;42.624;23.386;2024-03-02T01:11:03;93608.78;;;6.97;100.00
7918;BME280;4004;42.624;23.386;2024-03-02T01:13:30;93611.97;;;7.02;100.00
7918;BME280;4004;42.624;23.386;2024-03-02T01:15:59;93614.56;;;7.15;100.00
7918;BME280;4004;42.624;23.386;2024-03-02T01:18:27;93606.53;;;7.15;100.00
7918;BME280;4004;42.624;23.386;2024-03-02T01:20:54;93603.97;;;7.18;100.00
7918;BME280;4004;42.624;23.386;2024-03-02T01:23:22;93602.50;;;7.21;100.00
7918;BME280;4004;42.624;23.386;2024-03-02T01:25:50;93600.69;;;7.25;100.00
7918;BME280;4004;42.624;23.386;2024-03-02T01:28:18;93591.88;;;7.24;100.00
7918;BME280;4004;42.624;23.386;2024-03-02T01:30:46;93595.84;;;7.31;100.00
7918;BME280;4004;42.624;23.386;2024-03-02T01:33:13;93596.78;;;7.38;100.00
7918;BME280;4004;42.624;23.386;2024-03-02T01:35:40;93597.03;;;7.33;100.00
7918;BME280;4004;42.624;23.386;2024-03-02T01:38:07;93597.47;;;7.35;100.00
7918;BME280;4004;42.624;23.386;2024-03-02T01:40:34;93592.13;;;7.35;100.00
7918;BME280;4004;42.624;23.386;2024-03-02T01:43:03;93587.19;;;7.37;100.00
7918;BME280;4004;42.624;23.386;2024-03-02T01:45:30;93592.63;;;7.41;100.00
7918;BME280;4004;42.624;23.386;2024-03-02T01:47:58;93589.53;;;7.39;100.00
7918;BME280;4004;42.624;23.386;2024-03-02T01:50:26;93579.50;;;7.36;100.00
7918;BME280;4004;42.624;23.386;2024-03-02T01:52:54;93586.09;;;7.38;100.00
7918;BME280;4004;42.624;23.386;2024-03-02T01:55:21;93577.69;;;7.40;100.00
7918;BME280;4004;42.624;23.386;2024-03-02T01:57:48;93589.81;;;7.34;100.00
7918;BME280;4004;42.624;23.386;2024-03-02T02:00:18;93583.47;;;7.42;100.00
7918;BME280;4004;42.624;23.386;2024-03-02T02:02:45;93591.50;;;7.42;100.00
7918;BME280;4004;42.624;23.386;2024-03-02T02:05:12;93587.63;;;7.39;100.00
7918;BME280;4004;42.624;23.386;2024-03-02T02:07:40;93588.75;;;7.38;100.00
7918;BME280;4004;42.624;23.386;2024-03-02T02:10:08;93583.06;;;7.40;100.00
7918;BME280;4004;42.624;23.386;2024-03-02T02:12:35;93586.00;;;7.35;100.00
7918;BME280;4004;42.624;23.386;2024-03-02T02:15:02;93572.63;;;7.35;100.00
7918;BME280;4004;42.624;23.386;2024-03-02T02:17:31;93571.44;;;7.32;100.00
7918;BME280;4004;42.624;23.386;2024-03-02T02:19:58;93571.84;;;7.34;100.00
7918;BME280;4004;42.624;23.386;2024-03-02T02:22:26;93581.34;;;7.32;100.00
7918;BME280;4004;42.624;23.386;2024-03-02T02:24:53;93578.06;;;7.38;100.00
7918;BME280;4004;42.624;23.386;2024-03-02T02:27:20;93563.56;;;7.39;100.00
7918;BME280;4004;42.624;23.386;2024-03-02T02:29:46;93561.22;;;7.38;100.00
7918;BME280;4004;42.624;23.386;2024-03-02T02:32:13;93570.81;;;7.39;100.00
7918;BME280;4004;42.624;23.386;2024-03-02T02:34:40;93576.50;;;7.37;100.00
7918;BME280;4004;42.624;23.386;2024-03-02T02:37:07;93574.53;;;7.34;100.00
7918;BME280;4004;42.624;23.386;2024-03-02T02:39:35;93576.00;;;7.32;100.00
7918;BME280;4004;42.624;23.386;2024-03-02T02:42:03;93571.44;;;7.32;100.00
7918;BME280;4004;42.624;23.386;2024-03-02T02:44:30;93585.47;;;7.29;100.00
7918;BME280;4004;42.624;23.386;2024-03-02T02:46:57;93581.50;;;7.39;100.00
7918;BME280;4004;42.624;23.386;2024-03-02T02:49:23;93574.69;;;7.41;100.00
7918;BME280;4004;42.624;23.386;2024-03-02T02:51:50;93575.47;;;7.42;100.00
7918;BME280;4004;42.624;23.386;2024-03-02T02:54:17;93580.19;;;7.48;100.00
7918;BME280;4004;42.624;23.386;2024-03-02T02:56:45;93581.91;;;7.57;100.00
7918;BME280;4004;42.624;23.386;2024-03-02T02:59:12;93575.84;;;7.60;100.00
7918;BME280;4004;42.624;23.386;2024-03-02T03:01:39;93570.00;;;7.54;100.00
7918;BME280;4004;42.624;23.386;2024-03-02T03:04:06;93574.31;;;7.59;100.00
7918;BME280;4004;42.624;23.386;2024-03-02T03:06:33;93573.44;;;7.55;100.00
7918;BME280;4004;42.624;23.386;2024-03-02T03:09:00;93564.13;;;7.48;100.00
7918;BME280;4004;42.624;23.386;2024-03-02T03:11:27;93571.31;;;7.44;100.00
7918;BME280;4004;42.624;23.386;2024-03-02T03:13:55;93572.25;;;7.52;100.00
7918;BME280;4004;42.624;23.386;2024-03-02T03:16:22;93578.06;;;7.38;100.00
7918;BME280;4004;42.624;23.386;2024-03-02T03:18:49;93578.56;;;7.44;100.00
7918;BME280;4004;42.624;23.386;2024-03-02T03:21:18;93568.00;;;7.51;100.00
7918;BME280;4004;42.624;23.386;2024-03-02T03:23:45;93573.03;;;7.53;100.00
7918;BME280;4004;42.624;23.386;2024-03-02T03:26:12;93576.56;;;7.57;100.00
7918;BME280;4004;42.624;23.386;2024-03-02T03:28:39;93578.72;;;7.51;100.00
7918;BME280;4004;42.624;23.386;2024-03-02T03:31:07;93576.41;;;7.50;100.00
7918;BME280;4004;42.624;23.386;2024-03-02T03:33:34;93579.69;;;7.43;100.00
7918;BME280;4004;42.624;23.386;2024-03-02T03:36:01;93578.41;;;7.37;100.00
7918;BME280;4004;42.624;23.386;2024-03-02T03:38:29;93580.41;;;7.24;100.00
7918;BME280;4004;42.624;23.386;2024-03-02T03:40:56;93588.69;;;7.19;100.00
7918;BME280;4004;42.624;23.386;2024-03-02T03:43:23;93586.00;;;7.19;100.00
7918;BME280;4004;42.624;23.386;2024-03-02T03:45:50;93583.94;;;7.12;100.00
7918;BME280;4004;42.624;23.386;2024-03-02T03:48:18;93591.69;;;7.17;100.00
7918;BME280;4004;42.624;23.386;2024-03-02T03:50:45;93579.38;;;7.13;100.00
7918;BME280;4004;42.624;23.386;2024-03-02T03:53:12;93588.09;;;7.10;100.00
7918;BME280;4004;42.624;23.386;2024-03-02T03:55:40;93592.25;;;7.07;100.00
7918;BME280;4004;42.624;23.386;2024-03-02T03:58:07;93590.94;;;7.17;100.00
7918;BME280;4004;42.624;23.386;2024-03-02T04:00:33;93588.75;;;7.22;100.00
7918;BME280;4004;42.624;23.386;2024-03-02T04:03:00;93584.22;;;7.23;100.00
7918;BME280;4004;42.624;23.386;2024-03-02T04:05:29;93581.09;;;7.21;100.00
7918;BME280;4004;42.624;23.386;2024-03-02T04:07:56;93589.63;;;7.26;100.00
7918;BME280;4004;42.624;23.386;2024-03-02T04:10:22;93586.69;;;7.32;100.00
7918;BME280;4004;42.624;23.386;2024-03-02T04:12:50;93586.75;;;7.35;100.00
7918;BME280;4004;42.624;23.386;2024-03-02T04:15:17;93584.47;;;7.34;100.00
7918;BME280;4004;42.624;23.386;2024-03-02T04:17:44;93588.94;;;7.30;100.00
7918;BME280;4004;42.624;23.386;2024-03-02T04:20:11;93584.53;;;7.37;100.00
7918;BME280;4004;42.624;23.386;2024-03-02T04:22:40;93587.47;;;7.32;100.00
7918;BME280;4004;42.624;23.386;2024-03-02T04:25:08;93590.22;;;7.36;100.00
7918;BME280;4004;42.624;23.386;2024-03-02T04:27:35;93584.69;;;7.44;100.00
7918;BME280;4004;42.624;23.386;2024-03-02T04:30:03;93584.94;;;7.39;100.00
7918;BME280;4004;42.624;23.386;2024-03-02T04:32:30;93584.94;;;7.39;100.00
7918;BME280;4004;42.624;23.386;2024-03-02T04:34:57;93584.09;;;7.35;100.00
7918;BME280;4004;42.624;23.386;2024-03-02T04:37:24;93588.34;;;7.36;100.00
7918;BME280;4004;42.624;23.386;2024-03-02T04:39:52;93584.03;;;7.32;100.00
7918;BME280;4004;42.624;23.386;2024-03-02T04:42:19;93589.63;;;7.26;100.00
7918;BME280;4004;42.624;23.386;2024-03-02T04:44:46;93590.56;;;7.34;100.00
7918;BME280;4004;42.624;23.386;2024-03-02T04:47:13;93584.19;;;7.39;100.00
7918;BME280;4004;42.624;23.386;2024-03-02T04:49:40;93586.16;;;7.42;100.00
7918;BME280;4004;42.624;23.386;2024-03-02T04:52:07;93577.88;;;7.47;100.00
7918;BME280;4004;42.624;23.386;2024-03-02T04:54:34;93589.06;;;7.53;100.00
7918;BME280;4004;42.624;23.386;2024-03-02T04:57:22;93587.97;;;7.54;100.00
7918;BME280;4004;42.624;23.386;2024-03-02T04:59:48;93591.44;;;7.38;100.00
7918;BME280;4004;42.624;23.386;2024-03-02T05:02:15;93585.81;;;7.43;100.00
7918;BME280;4004;42.624;23.386;2024-03-02T05:04:42;93583.56;;;7.45;100.00
7918;BME280;4004;42.624;23.386;2024-03-02T05:07:09;93592.47;;;7.50;100.00
7918;BME280;4004;42.624;23.386;2024-03-02T05:09:36;93598.66;;;7.54;100.00
7918;BME280;4004;42.624;23.386;2024-03-02T05:12:03;93597.94;;;7.57;100.00
7918;BME280;4004;42.624;23.386;2024-03-02T05:14:50;93599.53;;;7.42;100.00
7918;BME280;4004;42.624;23.386;2024-03-02T05:17:16;93602.81;;;7.35;100.00
7918;BME280;4004;42.624;23.386;2024-03-02T05:19:43;93613.75;;;7.46;100.00
7918;BME280;4004;42.624;23.386;2024-03-02T05:22:10;93599.94;;;7.44;100.00
7918;BME280;4004;42.624;23.386;2024-03-02T05:24:37;93605.47;;;7.51;100.00
7918;BME280;4004;42.624;23.386;2024-03-02T05:27:04;93608.56;;;7.53;100.00
7918;BME280;4004;42.624;23.386;2024-03-02T05:29:32;93613.16;;;7.53;100.00
7918;BME280;4004;42.624;23.386;2024-03-02T05:32:01;93608.50;;;7.50;100.00
7918;BME280;4004;42.624;23.386;2024-03-02T05:34:28;93615.81;;;7.53;100.00
7918;BME280;4004;42.624;23.386;2024-03-02T05:36:56;93624.78;;;7.60;100.00
7918;BME280;4004;42.624;23.386;2024-03-02T05:39:23;93632.03;;;7.60;100.00
7918;BME280;4004;42.624;23.386;2024-03-02T05:41:50;93641.78;;;7.68;100.00
7918;BME280;4004;42.624;23.386;2024-03-02T05:44:17;93644.78;;;7.66;100.00
7918;BME280;4004;42.624;23.386;2024-03-02T05:46:43;93644.09;;;7.70;100.00
7918;BME280;4004;42.624;23.386;2024-03-02T05:49:12;93642.97;;;7.71;100.00
7918;BME280;4004;42.624;23.386;2024-03-02T05:51:39;93641.88;;;7.72;100.00
7918;BME280;4004;42.624;23.386;2024-03-02T05:54:06;93644.00;;;7.66;100.00
7918;BME280;4004;42.624;23.386;2024-03-02T05:56:33;93650.75;;;7.60;100.00
7918;BME280;4004;42.624;23.386;2024-03-02T05:59:00;93647.75;;;7.61;100.00
7918;BME280;4004;42.624;23.386;2024-03-02T06:01:37;93652.91;;;7.70;100.00
7918;BME280;4004;42.624;23.386;2024-03-02T06:04:04;93656.94;;;7.80;100.00
7918;BME280;4004;42.624;23.386;2024-03-02T06:06:33;93651.34;;;7.85;100.00
7918;BME280;4004;42.624;23.386;2024-03-02T06:09:00;93651.25;;;7.81;100.00
7918;BME280;4004;42.624;23.386;2024-03-02T06:11:28;93647.66;;;7.74;100.00
7918;BME280;4004;42.624;23.386;2024-03-02T06:13:55;93649.88;;;7.72;100.00
7918;BME280;4004;42.624;23.386;2024-03-02T06:16:21;93644.97;;;7.74;100.00
7918;BME280;4004;42.624;23.386;2024-03-02T06:18:48;93653.34;;;7.72;100.00
7918;BME280;4004;42.624;23.386;2024-03-02T06:21:15;93652.91;;;7.70;100.00
7918;BME280;4004;42.624;23.386;2024-03-02T06:23:45;93653.94;;;7.65;100.00
7918;BME280;4004;42.624;23.386;2024-03-02T06:26:12;93657.72;;;7.64;100.00
7918;BME280;4004;42.624;23.386;2024-03-02T06:28:39;93657.81;;;7.68;100.00
7918;BME280;4004;42.624;23.386;2024-03-02T06:31:06;93656.44;;;7.74;100.00
7918;BME280;4004;42.624;23.386;2024-03-02T06:33:33;93663.19;;;7.68;100.00
7918;BME280;4004;42.624;23.386;2024-03-02T06:36:00;93660.53;;;7.52;100.00
7918;BME280;4004;42.624;23.386;2024-03-02T06:38:26;93657.16;;;7.39;100.00
7918;BME280;4004;42.624;23.386;2024-03-02T06:40:55;93669.41;;;7.40;100.00
7918;BME280;4004;42.624;23.386;2024-03-02T06:43:22;93670.88;;;7.54;100.00
7918;BME280;4004;42.624;23.386;2024-03-02T06:45:49;93672.69;;;7.50;100.00
7918;BME280;4004;42.624;23.386;2024-03-02T06:48:16;93679.75;;;7.58;100.00
7918;BME280;4004;42.624;23.386;2024-03-02T06:50:45;93671.19;;;7.68;100.00
7918;BME280;4004;42.624;23.386;2024-03-02T06:53:13;93673.19;;;7.71;100.00
7918;BME280;4004;42.624;23.386;2024-03-02T06:55:43;93676.81;;;7.79;100.00
7918;BME280;4004;42.624;23.386;2024-03-02T06:58:11;93677.66;;;7.83;100.00
7918;BME280;4004;42.624;23.386;2024-03-02T07:00:38;93670.56;;;7.91;100.00
7918;BME280;4004;42.624;23.386;2024-03-02T07:03:05;93671.94;;;7.84;100.00
7918;BME280;4004;42.624;23.386;2024-03-02T07:05:32;93677.47;;;7.92;100.00
7918;BME280;4004;42.624;23.386;2024-03-02T07:07:58;93674.72;;;7.88;100.00
7918;BME280;4004;42.624;23.386;2024-03-02T07:10:26;93680.34;;;7.83;100.00
7918;BME280;4004;42.624;23.386;2024-03-02T07:12:53;93675.56;;;7.92;100.00
7918;BME280;4004;42.624;23.386;2024-03-02T07:15:22;93681.41;;;7.98;100.00
7918;BME280;4004;42.624;23.386;2024-03-02T07:18:08;93683.66;;;7.96;100.00
7918;BME280;4004;42.624;23.386;2024-03-02T07:20:35;93689.88;;;8.00;100.00
7918;BME280;4004;42.624;23.386;2024-03-02T07:23:04;93686.72;;;7.94;100.00
7918;BME280;4004;42.624;23.386;2024-03-02T07:25:31;93682.88;;;7.95;100.00
7918;BME280;4004;42.624;23.386;2024-03-02T07:27:58;93684.09;;;7.98;100.00
7918;BME280;4004;42.624;23.386;2024-03-02T07:30:26;93686.28;;;7.92;100.00
7918;BME280;4004;42.624;23.386;2024-03-02T07:32:53;93689.13;;;7.83;100.00
7918;BME280;4004;42.624;23.386;2024-03-02T07:35:20;93680.78;;;7.85;100.00
7918;BME280;4004;42.624;23.386;2024-03-02T07:37:52;93688.09;;;7.88;100.00
7918;BME280;4004;42.624;23.386;2024-03-02T07:40:19;93687.66;;;7.86;100.00
7918;BME280;4004;42.624;23.386;2024-03-02T07:42:45;93693.53;;;7.92;100.00
7918;BME280;4004;42.624;23.386;2024-03-02T07:45:12;93694.13;;;8.01;100.00
7918;BME280;4004;42.624;23.386;2024-03-02T07:47:41;93697.03;;;7.96;100.00
7918;BME280;4004;42.624;23.386;2024-03-02T07:50:08;93700.16;;;7.98;100.00
7918;BME280;4004;42.624;23.386;2024-03-02T07:52:35;93697.47;;;7.98;100.00
7918;BME280;4004;42.624;23.386;2024-03-02T07:55:03;93700.44;;;7.93;100.00
7918;BME280;4004;42.624;23.386;2024-03-02T07:57:30;93701.63;;;7.95;100.00
7918;BME280;4004;42.624;23.386;2024-03-02T07:59:57;93698.63;;;7.97;100.00
7918;BME280;4004;42.624;23.386;2024-03-02T08:02:25;93710.72;;;7.91;100.00
7918;BME280;4004;42.624;23.386;2024-03-02T08:04:53;93710.28;;;7.88;100.00
7918;BME280;4004;42.624;23.386;2024-03-02T08:07:20;93717.19;;;7.89;100.00
7918;BME280;4004;42.624;23.386;2024-03-02T08:09:47;93712.53;;;7.86;100.00
7918;BME280;4004;42.624;23.386;2024-03-02T08:12:14;93715.44;;;7.97;100.00
7918;BME280;4004;42.624;23.386;2024-03-02T08:14:41;93713.34;;;8.06;100.00
7918;BME280;4004;42.624;23.386;2024-03-02T08:17:08;93718.22;;;8.01;100.00
7918;BME280;4004;42.624;23.386;2024-03-02T08:19:37;93716.56;;;7.96;100.00
7918;BME280;4004;42.624;23.386;2024-03-02T08:22:05;93720.38;;;7.95;100.00
7918;BME280;4004;42.624;23.386;2024-03-02T08:24:32;93718.56;;;7.99;100.00
7918;BME280;4004;42.624;23.386;2024-03-02T08:27:00;93718.44;;;8.12;100.00
7918;BME280;4004;42.624;23.386;2024-03-02T08:29:27;93720.56;;;8.22;100.00
7918;BME280;4004;42.624;23.386;2024-03-02T08:31:54;93707.91;;;8.19;100.00
7918;BME280;4004;42.624;23.386;2024-03-02T08:34:21;93707.00;;;8.30;100.00
7918;BME280;4004;42.624;23.386;2024-03-02T08:36:48;93699.81;;;8.35;100.00
7918;BME280;4004;42.624;23.386;2024-03-02T08:39:17;93704.75;;;8.33;100.00
7918;BME280;4004;42.624;23.386;2024-03-02T08:41:46;93701.97;;;8.29;100.00
7918;BME280;4004;42.624;23.386;2024-03-02T08:44:13;93712.44;;;8.34;100.00
7918;BME280;4004;42.624;23.386;2024-03-02T08:46:40;93698.44;;;8.41;100.00
7918;BME280;4004;42.624;23.386;2024-03-02T08:49:07;93702.16;;;8.56;100.00
7918;BME280;4004;42.624;23.386;2024-03-02T08:51:34;93707.06;;;8.69;100.00
7918;BME280;4004;42.624;23.386;2024-03-02T08:54:01;93698.31;;;8.73;100.00
7918;BME280;4004;42.624;23.386;2024-03-02T08:56:30;93696.91;;;8.59;100.00
7918;BME280;4004;42.624;23.386;2024-03-02T08:58:58;93696.81;;;8.75;100.00
7918;BME280;4004;42.624;23.386;2024-03-02T09:01:24;93690.81;;;8.82;100.00
7918;BME280;4004;42.624;23.386;2024-03-02T09:03:51;93697.38;;;8.84;100.00
7918;BME280;4004;42.624;23.386;2024-03-02T09:06:18;93695.53;;;8.88;100.00
7918;BME280;4004;42.624;23.386;2024-03-02T09:08:46;93698.00;;;8.78;100.00
7918;BME280;4004;42.624;23.386;2024-03-02T09:11:15;93693.06;;;8.80;100.00
7918;BME280;4004;42.624;23.386;2024-03-02T09:13:43;93694.56;;;8.77;100.00
7918;BME280;4004;42.624;23.386;2024-03-02T09:16:10;93692.22;;;8.76;100.00
7918;BME280;4004;42.624;23.386;2024-03-02T09:18:37;93688.44;;;8.77;100.00
7918;BME280;4004;42.624;23.386;2024-03-02T09:21:04;93699.41;;;8.91;100.00
7918;BME280;4004;42.624;23.386;2024-03-02T09:23:32;93693.84;;;8.80;100.00
7918;BME280;4004;42.624;23.386;2024-03-02T09:25:59;93701.63;;;8.85;100.00
7918;BME280;4004;42.624;23.386;2024-03-02T09:28:26;93696.25;;;8.85;100.00
7918;BME280;4004;42.624;23.386;2024-03-02T09:30:54;93703.53;;;8.85;100.00
7918;BME280;4004;42.624;23.386;2024-03-02T09:33:21;93703.94;;;8.87;100.00
7918;BME280;4004;42.624;23.386;2024-03-02T09:35:48;93712.81;;;8.91;100.00
7918;BME280;4004;42.624;23.386;2024-03-02T09:38:15;93697.75;;;8.83;100.00
7918;BME280;4004;42.624;23.386;2024-03-02T09:40:42;93708.31;;;8.95;100.00
7918;BME280;4004;42.624;23.386;2024-03-02T09:43:10;93705.56;;;8.91;100.00
7918;BME280;4004;42.624;23.386;2024-03-02T09:45:37;93711.56;;;8.85;100.00
7918;BME280;4004;42.624;23.386;2024-03-02T09:48:06;93708.66;;;8.93;100.00
7918;BME280;4004;42.624;23.386;2024-03-02T09:50:33;93710.78;;;8.84;100.00
7918;BME280;4004;42.624;23.386;2024-03-02T09:53:01;93711.00;;;8.76;100.00
7918;BME280;4004;42.624;23.386;2024-03-02T09:55:28;93715.03;;;8.85;100.00
7918;BME280;4004;42.624;23.386;2024-03-02T09:57:55;93709.53;;;8.78;100.00
7918;BME280;4004;42.624;23.386;2024-03-02T10:00:22;93705.38;;;8.81;100.00
7918;BME280;4004;42.624;23.386;2024-03-02T10:02:50;93711.63;;;8.88;100.00
7918;BME280;4004;42.624;23.386;2024-03-02T10:05:25;93709.66;;;9.05;100.00
7918;BME280;4004;42.624;23.386;2024-03-02T10:07:59;93707.28;;;9.23;100.00
7918;BME280;4004;42.624;23.386;2024-03-02T10:10:35;93713.78;;;9.45;100.00
7918;BME280;4004;42.624;23.386;2024-03-02T10:13:06;93708.31;;;9.61;100.00
7918;BME280;4004;42.624;23.386;2024-03-02T10:15:33;93708.97;;;9.54;100.00
7918;BME280;4004;42.624;23.386;2024-03-02T10:18:00;93708.50;;;9.48;100.00
7918;BME280;4004;42.624;23.386;2024-03-02T10:20:28;93711.91;;;9.45;100.00
7918;BME280;4004;42.624;23.386;2024-03-02T10:22:55;93711.66;;;9.54;100.00
7918;BME280;4004;42.624;23.386;2024-03-02T10:25:29;93703.41;;;9.66;100.00
7918;BME280;4004;42.624;23.386;2024-03-02T10:27:57;93698.97;;;9.78;100.00
7918;BME280;4004;42.624;23.386;2024-03-02T10:30:25;93702.06;;;9.76;100.00
7918;BME280;4004;42.624;23.386;2024-03-02T10:32:53;93703.50;;;9.73;100.00
7918;BME280;4004;42.624;23.386;2024-03-02T10:35:21;93702.63;;;9.66;100.00
7918;BME280;4004;42.624;23.386;2024-03-02T10:37:50;93699.34;;;9.53;100.00
7918;BME280;4004;42.624;23.386;2024-03-02T10:40:18;93703.44;;;9.43;100.00
7918;BME280;4004;42.624;23.386;2024-03-02T10:42:45;93701.34;;;9.56;100.00
7918;BME280;4004;42.624;23.386;2024-03-02T10:45:14;93698.38;;;9.65;100.00
7918;BME280;4004;42.624;23.386;2024-03-02T10:47:42;93692.97;;;9.61;100.00
7918;BME280;4004;42.624;23.386;2024-03-02T10:50:09;93692.16;;;9.57;100.00
7918;BME280;4004;42.624;23.386;2024-03-02T10:52:36;93692.91;;;9.58;100.00
7918;BME280;4004;42.624;23.386;2024-03-02T10:55:07;93685.91;;;9.49;100.00
7918;BME280;4004;42.624;23.386;2024-03-02T10:57:42;93681.31;;;9.50;100.00
7918;BME280;4004;42.624;23.386;2024-03-02T11:00:13;93685.69;;;9.62;100.00
7918;BME280;4004;42.624;23.386;2024-03-02T11:02:49;93684.09;;;9.57;100.00
7918;BME280;4004;42.624;23.386;2024-03-02T11:05:25;93681.34;;;9.53;100.00
7918;BME280;4004;42.624;23.386;2024-03-02T11:07:53;93686.19;;;9.44;100.00
7918;BME280;4004;42.624;23.386;2024-03-02T11:10:25;93676.28;;;9.48;100.00
7918;BME280;4004;42.624;23.386;2024-03-02T11:12:56;93686.94;;;9.45;100.00
7918;BME280;4004;42.624;23.386;2024-03-02T11:15:27;93680.66;;;9.57;100.00
7918;BME280;4004;42.624;23.386;2024-03-02T11:17:55;93688.31;;;9.58;100.00
7918;BME280;4004;42.624;23.386;2024-03-02T11:20:22;93679.09;;;9.55;100.00
7918;BME280;4004;42.624;23.386;2024-03-02T11:22:50;93680.81;;;9.44;100.00
7918;BME280;4004;42.624;23.386;2024-03-02T11:25:25;93679.03;;;9.29;100.00
7918;BME280;4004;42.624;23.386;2024-03-02T11:28:02;93682.72;;;9.21;100.00
7918;BME280;4004;42.624;23.386;2024-03-02T11:30:48;93683.16;;;9.23;100.00
7918;BME280;4004;42.624;23.386;2024-03-02T11:33:23;93679.78;;;9.06;100.00
7918;BME280;4004;42.624;23.386;2024-03-02T11:35:50;93694.75;;;9.07;100.00
7918;BME280;4004;42.624;23.386;2024-03-02T11:38:18;93682.75;;;9.01;100.00
7918;BME280;4004;42.624;23.386;2024-03-02T11:40:46;93682.75;;;9.01;100.00
7918;BME280;4004;42.624;23.386;2024-03-02T11:43:13;93686.63;;;9.04;100.00
7918;BME280;4004;42.624;23.386;2024-03-02T11:45:42;93681.78;;;9.09;100.00
7918;BME280;4004;42.624;23.386;2024-03-02T11:48:11;93684.19;;;8.95;100.00
7918;BME280;4004;42.624;23.386;2024-03-02T11:50:41;93690.25;;;8.92;100.00
7918;BME280;4004;42.624;23.386;2024-03-02T11:53:10;93688.56;;;8.84;100.00
7918;BME280;4004;42.624;23.386;2024-03-02T11:55:38;93688.66;;;8.87;100.00
7918;BME280;4004;42.624;23.386;2024-03-02T11:58:07;93682.56;;;8.90;100.00
7918;BME280;4004;42.624;23.386;2024-03-02T12:00:35;93691.75;;;8.89;100.00
7918;BME280;4004;42.624;23.386;2024-03-02T12:03:03;93689.84;;;8.90;100.00
7918;BME280;4004;42.624;23.386;2024-03-02T12:05:30;93685.97;;;8.87;100.00
7918;BME280;4004;42.624;23.386;2024-03-02T12:07:58;93684.78;;;8.85;100.00
7918;BME280;4004;42.624;23.386;2024-03-02T12:10:25;93684.91;;;8.92;100.00
7918;BME280;4004;42.624;23.386;2024-03-02T12:12:56;93688.69;;;8.91;100.00
7918;BME280;4004;42.624;23.386;2024-03-02T12:15:25;93681.50;;;8.95;100.00
7918;BME280;4004;42.624;23.386;2024-03-02T12:17:54;93690.69;;;8.94;100.00
7918;BME280;4004;42.624;23.386;2024-03-02T12:20:22;93685.78;;;9.00;100.00
7918;BME280;4004;42.624;23.386;2024-03-02T12:22:50;93680.16;;;9.05;100.00
7918;BME280;4004;42.624;23.386;2024-03-02T12:25:19;93690.25;;;9.11;100.00
7918;BME280;4004;42.624;23.386;2024-03-02T12:27:48;93687.59;;;9.15;100.00
7918;BME280;4004;42.624;23.386;2024-03-02T12:30:17;93685.41;;;9.21;100.00
7918;BME280;4004;42.624;23.386;2024-03-02T12:32:45;93689.09;;;9.36;100.00
7918;BME280;4004;42.624;23.386;2024-03-02T12:35:13;93684.91;;;9.38;100.00
7918;BME280;4004;42.624;23.386;2024-03-02T12:37:44;93681.88;;;9.40;100.00
7918;BME280;4004;42.624;23.386;2024-03-02T12:40:12;93682.81;;;9.47;100.00
7918;BME280;4004;42.624;23.386;2024-03-02T12:42:39;93674.50;;;9.56;100.00
7918;BME280;4004;42.624;23.386;2024-03-02T12:45:07;93679.91;;;9.60;100.00
7918;BME280;4004;42.624;23.386;2024-03-02T12:47:34;93689.94;;;9.63;100.00
7918;BME280;4004;42.624;23.386;2024-03-02T12:50:04;93685.34;;;9.63;100.00
7918;BME280;4004;42.624;23.386;2024-03-02T12:52:31;93680.44;;;9.69;100.00
7918;BME280;4004;42.624;23.386;2024-03-02T12:54:59;93684.16;;;9.61;100.00
7918;BME280;4004;42.624;23.386;2024-03-02T12:57:29;93683.13;;;9.69;100.00
7918;BME280;4004;42.624;23.386;2024-03-02T12:59:58;93681.78;;;9.82;100.00
7918;BME280;4004;42.624;23.386;2024-03-02T13:02:28;93676.56;;;9.89;100.00
7918;BME280;4004;42.624;23.386;2024-03-02T13:04:55;93678.59;;;10.00;100.00
7918;BME280;4004;42.624;23.386;2024-03-02T13:07:24;93679.38;;;10.00;100.00
7918;BME280;4004;42.624;23.386;2024-03-02T13:09:50;93679.69;;;9.95;100.00
7918;BME280;4004;42.624;23.386;2024-03-02T13:12:19;93668.63;;;10.00;100.00
7918;BME280;4004;42.624;23.386;2024-03-02T13:14:48;93668.22;;;9.98;100.00